sensor_id;sensor_type;location;lat;lon;timestamp;pressure;altitude;pressure_sealevel;temperature;humidity
17521;BME280;8878;-33.370;-70.552;2023-07-13T00:00:39;92866.16;;;12.50;73.00
17521;BME280;8878;-33.370;-70.552;2023-07-13T00:03:11;92875.69;;;12.41;73.28
17521;BME280;8878;-33.370;-70.552;2023-07-13T00:05:40;92867.25;;;12.54;73.70
17521;BME280;8878;-33.370;-70.552;2023-07-13T00:08:10;92873.38;;;12.65;73.83
17521;BME280;8878;-33.370;-70.552;2023-07-13T00:10:42;92873.66;;;12.69;73.37
17521;BME280;8878;-33.370;-70.552;2023-07-13T00:13:13;92873.91;;;12.72;73.25
17521;BME280;8878;-33.370;-70.552;2023-07-13T00:15:43;92882.66;;;12.73;72.96
17521;BME280;8878;-33.370;-70.552;2023-07-13T00:18:14;92884.94;;;12.44;73.27
17521;BME280;8878;-33.370;-70.552;2023-07-13T00:20:43;92881.28;;;12.55;73.74
17521;BME280;8878;-33.370;-70.552;2023-07-13T00:23:13;92866.75;;;12.68;73.35
17521;BME280;8878;-33.370;-70.552;2023-07-13T00:25:42;92869.09;;;12.54;73.02
17521;BME280;8878;-33.370;-70.552;2023-07-13T00:28:12;92863.00;;;12.48;73.41
17521;BME280;8878;-33.370;-70.552;2023-07-13T00:30:41;92850.81;;;12.47;73.12
17521;BME280;8878;-33.370;-70.552;2023-07-13T00:33:14;92855.38;;;12.57;73.29
17521;BME280;8878;-33.370;-70.552;2023-07-13T00:35:43;92854.88;;;12.70;73.10
17521;BME280;8878;-33.370;-70.552;2023-07-13T00:38:12;92854.81;;;12.60;72.44
17521;BME280;8878;-33.370;-70.552;2023-07-13T00:40:42;92845.78;;;12.51;73.25
17521;BME280;8878;-33.370;-70.552;2023-07-13T00:43:13;92845.53;;;12.42;73.56
17521;BME280;8878;-33.370;-70.552;2023-07-13T00:46:21;92848.97;;;12.53;73.50
17521;BME280;8878;-33.370;-70.552;2023-07-13T00:48:54;92843.44;;;12.49;73.40
17521;BME280;8878;-33.370;-70.552;2023-07-13T00:51:30;92838.69;;;12.67;73.18
17521;BME280;8878;-33.370;-70.552;2023-07-13T00:54:05;92838.72;;;12.77;72.65
17521;BME280;8878;-33.370;-70.552;2023-07-13T00:56:36;92831.06;;;12.85;72.06
17521;BME280;8878;-33.370;-70.552;2023-07-13T00:59:07;92821.75;;;12.73;71.85
17521;BME280;8878;-33.370;-70.552;2023-07-13T01:01:38;92816.69;;;12.51;72.87
17521;BME280;8878;-33.370;-70.552;2023-07-13T01:04:10;92814.78;;;12.36;73.46
17521;BME280;8878;-33.370;-70.552;2023-07-13T01:06:40;92810.84;;;12.44;73.37
17521;BME280;8878;-33.370;-70.552;2023-07-13T01:09:12;92811.13;;;12.52;73.29
17521;BME280;8878;-33.370;-70.552;2023-07-13T01:11:42;92795.81;;;12.70;72.89
17521;BME280;8878;-33.370;-70.552;2023-07-13T01:14:12;92795.81;;;12.80;72.62
17521;BME280;8878;-33.370;-70.552;2023-07-13T01:16:43;92795.81;;;12.70;72.07
17521;BME280;8878;-33.370;-70.552;2023-07-13T01:19:24;92800.59;;;12.63;72.18
17521;BME280;8878;-33.370;-70.552;2023-07-13T01:21:58;92790.72;;;12.33;72.77
17521;BME280;8878;-33.370;-70.552;2023-07-13T01:24:28;92785.38;;;12.23;73.41
17521;BME280;8878;-33.370;-70.552;2023-07-13T01:26:57;92794.03;;;12.03;74.43
17521;BME280;8878;-33.370;-70.552;2023-07-13T01:29:26;92782.22;;;12.31;74.21
17521;BME280;8878;-33.370;-70.552;2023-07-13T01:31:56;92785.72;;;12.41;73.66
17521;BME280;8878;-33.370;-70.552;2023-07-13T01:34:27;92788.31;;;12.21;73.07
17521;BME280;8878;-33.370;-70.552;2023-07-13T01:36:58;92786.72;;;12.30;73.36
17521;BME280;8878;-33.370;-70.552;2023-07-13T01:39:28;92778.81;;;12.40;72.88
17521;BME280;8878;-33.370;-70.552;2023-07-13T01:41:58;92766.09;;;12.27;72.86
17521;BME280;8878;-33.370;-70.552;2023-07-13T01:44:27;92772.47;;;12.41;72.90
17521;BME280;8878;-33.370;-70.552;2023-07-13T01:46:57;92778.28;;;12.28;72.38
17521;BME280;8878;-33.370;-70.552;2023-07-13T01:49:26;92777.22;;;12.39;73.25
17521;BME280;8878;-33.370;-70.552;2023-07-13T01:51:58;92779.91;;;12.49;72.93
17521;BME280;8878;-33.370;-70.552;2023-07-13T01:54:27;92763.78;;;12.56;72.45
17521;BME280;8878;-33.370;-70.552;2023-07-13T01:56:56;92760.84;;;12.52;72.21
17521;BME280;8878;-33.370;-70.552;2023-07-13T01:59:26;92761.38;;;12.54;72.87
17521;BME280;8878;-33.370;-70.552;2023-07-13T02:01:55;92769.88;;;12.57;72.65
17521;BME280;8878;-33.370;-70.552;2023-07-13T02:04:24;92766.69;;;12.54;72.76
17521;BME280;8878;-33.370;-70.552;2023-07-13T02:06:54;92755.81;;;12.51;72.42
17521;BME280;8878;-33.370;-70.552;2023-07-13T02:09:25;92752.38;;;12.50;72.28
17521;BME280;8878;-33.370;-70.552;2023-07-13T02:11:55;92753.91;;;12.21;72.02
17521;BME280;8878;-33.370;-70.552;2023-07-13T02:14:25;92758.41;;;12.26;72.43
17521;BME280;8878;-33.370;-70.552;2023-07-13T02:16:54;92769.03;;;12.36;72.90
17521;BME280;8878;-33.370;-70.552;2023-07-13T02:19:25;92767.19;;;12.41;72.74
17521;BME280;8878;-33.370;-70.552;2023-07-13T02:21:55;92765.34;;;12.42;72.01
17521;BME280;8878;-33.370;-70.552;2023-07-13T02:24:26;92761.34;;;12.39;71.69
17521;BME280;8878;-33.370;-70.552;2023-07-13T02:26:55;92761.34;;;12.44;71.30
17521;BME280;8878;-33.370;-70.552;2023-07-13T02:29:25;92757.13;;;12.43;72.05
17521;BME280;8878;-33.370;-70.552;2023-07-13T02:31:55;92765.34;;;12.42;71.10
17521;BME280;8878;-33.370;-70.552;2023-07-13T02:34:25;92765.03;;;12.38;71.51
17521;BME280;8878;-33.370;-70.552;2023-07-13T02:36:55;92761.09;;;12.36;71.10
17521;BME280;8878;-33.370;-70.552;2023-07-13T02:39:26;92745.69;;;12.23;71.19
17521;BME280;8878;-33.370;-70.552;2023-07-13T02:41:56;92753.34;;;12.14;71.44
17521;BME280;8878;-33.370;-70.552;2023-07-13T02:44:25;92740.69;;;12.21;71.41
17521;BME280;8878;-33.370;-70.552;2023-07-13T02:46:54;92732.75;;;12.31;71.92
17521;BME280;8878;-33.370;-70.552;2023-07-13T02:49:24;92730.66;;;12.28;72.02
17521;BME280;8878;-33.370;-70.552;2023-07-13T02:51:53;92723.72;;;12.22;71.66
17521;BME280;8878;-33.370;-70.552;2023-07-13T02:54:23;92720.53;;;12.15;70.75
17521;BME280;8878;-33.370;-70.552;2023-07-13T02:56:54;92713.66;;;12.09;70.98
17521;BME280;8878;-33.370;-70.552;2023-07-13T02:59:23;92711.25;;;12.02;71.40
17521;BME280;8878;-33.370;-70.552;2023-07-13T03:01:52;92704.91;;;11.98;71.23
17521;BME280;8878;-33.370;-70.552;2023-07-13T03:04:22;92705.91;;;11.82;71.59
17521;BME280;8878;-33.370;-70.552;2023-07-13T03:06:52;92713.28;;;11.80;71.85
17521;BME280;8878;-33.370;-70.552;2023-07-13T03:09:24;92707.75;;;11.87;71.89
17521;BME280;8878;-33.370;-70.552;2023-07-13T03:11:56;92699.63;;;11.93;71.24
17521;BME280;8878;-33.370;-70.552;2023-07-13T03:14:26;92684.81;;;11.97;71.01
17521;BME280;8878;-33.370;-70.552;2023-07-13T03:16:57;92687.72;;;12.01;71.09
17521;BME280;8878;-33.370;-70.552;2023-07-13T03:19:26;92684.72;;;11.72;69.92
17521;BME280;8878;-33.370;-70.552;2023-07-13T03:21:56;92687.25;;;11.47;70.76
17521;BME280;8878;-33.370;-70.552;2023-07-13T03:24:25;92688.91;;;11.63;71.32
17521;BME280;8878;-33.370;-70.552;2023-07-13T03:26:56;92696.06;;;11.72;71.38
17521;BME280;8878;-33.370;-70.552;2023-07-13T03:29:26;92695.88;;;11.79;71.06
17521;BME280;8878;-33.370;-70.552;2023-07-13T03:31:55;92693.00;;;11.91;70.28
17521;BME280;8878;-33.370;-70.552;2023-07-13T03:34:25;92688.28;;;12.13;68.90
17521;BME280;8878;-33.370;-70.552;2023-07-13T03:36:54;92690.94;;;12.18;68.65
17521;BME280;8878;-33.370;-70.552;2023-07-13T03:39:24;92687.19;;;12.09;68.97
17521;BME280;8878;-33.370;-70.552;2023-07-13T03:41:55;92687.19;;;12.09;70.30
17521;BME280;8878;-33.370;-70.552;2023-07-13T03:44:25;92694.59;;;11.92;69.91
17521;BME280;8878;-33.370;-70.552;2023-07-13T03:46:54;92691.16;;;12.01;70.28
17521;BME280;8878;-33.370;-70.552;2023-07-13T03:49:23;92688.00;;;12.09;71.25
17521;BME280;8878;-33.370;-70.552;2023-07-13T03:51:53;92687.19;;;12.04;70.32
17521;BME280;8878;-33.370;-70.552;2023-07-13T03:54:22;92691.94;;;11.97;69.65
17521;BME280;8878;-33.370;-70.552;2023-07-13T03:56:52;92686.69;;;11.45;71.55
17521;BME280;8878;-33.370;-70.552;2023-07-13T03:59:23;92693.22;;;11.27;71.83
17521;BME280;8878;-33.370;-70.552;2023-07-13T04:01:53;92692.19;;;11.33;71.79
17521;BME280;8878;-33.370;-70.552;2023-07-13T04:04:22;92700.34;;;11.79;71.32
17521;BME280;8878;-33.370;-70.552;2023-07-13T04:06:51;92702.53;;;11.97;71.58
17521;BME280;8878;-33.370;-70.552;2023-07-13T04:09:21;92698.31;;;12.06;71.00
17521;BME280;8878;-33.370;-70.552;2023-07-13T04:11:51;92692.50;;;12.04;71.48
17521;BME280;8878;-33.370;-70.552;2023-07-13T04:14:22;92694.63;;;12.07;70.71
17521;BME280;8878;-33.370;-70.552;2023-07-13T04:16:52;92694.63;;;12.12;70.32
17521;BME280;8878;-33.370;-70.552;2023-07-13T04:19:21;92683.25;;;12.06;69.73
17521;BME280;8878;-33.370;-70.552;2023-07-13T04:21:50;92682.97;;;12.03;71.10
17521;BME280;8878;-33.370;-70.552;2023-07-13T04:24:20;92681.41;;;12.12;71.18
17521;BME280;8878;-33.370;-70.552;2023-07-13T04:26:50;92675.56;;;12.15;71.05
17521;BME280;8878;-33.370;-70.552;2023-07-13T04:29:19;92679.25;;;12.04;70.78
17521;BME280;8878;-33.370;-70.552;2023-07-13T04:31:50;92684.50;;;11.89;71.48
17521;BME280;8878;-33.370;-70.552;2023-07-13T04:34:20;92674.78;;;12.09;71.43
17521;BME280;8878;-33.370;-70.552;2023-07-13T04:36:49;92670.81;;;12.22;71.10
17521;BME280;8878;-33.370;-70.552;2023-07-13T04:39:19;92657.38;;;12.29;70.42
17521;BME280;8878;-33.370;-70.552;2023-07-13T04:41:48;92653.91;;;12.23;70.58
17521;BME280;8878;-33.370;-70.552;2023-07-13T04:44:18;92647.03;;;12.27;69.81
17521;BME280;8878;-33.370;-70.552;2023-07-13T04:46:49;92635.38;;;12.18;69.35
17521;BME280;8878;-33.370;-70.552;2023-07-13T04:49:18;92640.13;;;12.16;69.09
17521;BME280;8878;-33.370;-70.552;2023-07-13T04:51:47;92635.91;;;12.10;68.61
17521;BME280;8878;-33.370;-70.552;2023-07-13T04:54:17;92639.59;;;12.04;68.82
17521;BME280;8878;-33.370;-70.552;2023-07-13T04:56:46;92633.22;;;11.95;68.44
17521;BME280;8878;-33.370;-70.552;2023-07-13T04:59:15;92629.78;;;11.89;69.07
17521;BME280;8878;-33.370;-70.552;2023-07-13T05:01:45;92627.97;;;12.00;68.69
17521;BME280;8878;-33.370;-70.552;2023-07-13T05:04:16;92621.50;;;11.65;68.54
17521;BME280;8878;-33.370;-70.552;2023-07-13T05:06:45;92618.78;;;11.40;70.08
17521;BME280;8878;-33.370;-70.552;2023-07-13T05:09:15;92608.50;;;11.49;70.17
17521;BME280;8878;-33.370;-70.552;2023-07-13T05:11:44;92606.97;;;11.63;70.00
17521;BME280;8878;-33.370;-70.552;2023-07-13T05:14:14;92596.59;;;11.46;69.44
17521;BME280;8878;-33.370;-70.552;2023-07-13T05:16:43;92599.50;;;11.45;69.81
17521;BME280;8878;-33.370;-70.552;2023-07-13T05:19:15;92594.75;;;11.42;69.82
17521;BME280;8878;-33.370;-70.552;2023-07-13T05:21:45;92599.19;;;11.26;70.11
17521;BME280;8878;-33.370;-70.552;2023-07-13T05:24:14;92600.28;;;11.35;71.10
17521;BME280;8878;-33.370;-70.552;2023-07-13T05:26:43;92599.81;;;11.58;69.91
17521;BME280;8878;-33.370;-70.552;2023-07-13T05:29:13;92604.59;;;11.66;69.49
17521;BME280;8878;-33.370;-70.552;2023-07-13T05:31:43;92604.88;;;11.65;69.25
17521;BME280;8878;-33.370;-70.552;2023-07-13T05:34:12;92594.31;;;11.65;69.05
17521;BME280;8878;-33.370;-70.552;2023-07-13T05:36:43;92591.91;;;11.73;68.16
17521;BME280;8878;-33.370;-70.552;2023-07-13T05:39:13;92600.41;;;11.75;68.18
17521;BME280;8878;-33.370;-70.552;2023-07-13T05:41:42;92604.06;;;11.69;68.05
17521;BME280;8878;-33.370;-70.552;2023-07-13T05:44:12;92603.59;;;11.88;68.09
17521;BME280;8878;-33.370;-70.552;2023-07-13T05:46:41;92599.91;;;11.89;68.51
17521;BME280;8878;-33.370;-70.552;2023-07-13T05:49:11;92602.03;;;11.92;67.79
17521;BME280;8878;-33.370;-70.552;2023-07-13T05:51:42;92599.94;;;11.99;67.66
17521;BME280;8878;-33.370;-70.552;2023-07-13T05:54:11;92611.56;;;11.93;67.97
17521;BME280;8878;-33.370;-70.552;2023-07-13T05:56:41;92623.97;;;11.87;68.30
17521;BME280;8878;-33.370;-70.552;2023-07-13T05:59:10;92627.69;;;11.86;68.60
17521;BME280;8878;-33.370;-70.552;2023-07-13T06:01:41;92620.44;;;11.66;68.11
17521;BME280;8878;-33.370;-70.552;2023-07-13T06:04:10;92615.34;;;11.34;69.31
17521;BME280;8878;-33.370;-70.552;2023-07-13T06:06:39;92622.00;;;11.52;69.19
17521;BME280;8878;-33.370;-70.552;2023-07-13T06:09:11;92631.94;;;11.25;69.82
17521;BME280;8878;-33.370;-70.552;2023-07-13T06:11:40;92631.75;;;11.52;69.74
17521;BME280;8878;-33.370;-70.552;2023-07-13T06:14:09;92620.19;;;11.73;69.42
17521;BME280;8878;-33.370;-70.552;2023-07-13T06:16:40;92620.50;;;11.82;69.57
17521;BME280;8878;-33.370;-70.552;2023-07-13T06:19:10;92621.50;;;11.60;69.27
17521;BME280;8878;-33.370;-70.552;2023-07-13T06:21:39;92615.19;;;11.71;69.34
17521;BME280;8878;-33.370;-70.552;2023-07-13T06:24:10;92620.50;;;11.82;68.54
17521;BME280;8878;-33.370;-70.552;2023-07-13T06:26:39;92620.19;;;11.58;68.20
17521;BME280;8878;-33.370;-70.552;2023-07-13T06:29:09;92610.13;;;11.60;68.07
17521;BME280;8878;-33.370;-70.552;2023-07-13T06:31:38;92617.63;;;11.88;69.01
17521;BME280;8878;-33.370;-70.552;2023-07-13T06:34:07;92617.09;;;11.86;69.01
17521;BME280;8878;-33.370;-70.552;2023-07-13T06:36:37;92626.34;;;11.89;69.05
17521;BME280;8878;-33.370;-70.552;2023-07-13T06:39:09;92620.00;;;11.85;68.19
17521;BME280;8878;-33.370;-70.552;2023-07-13T06:41:38;92632.06;;;11.55;68.30
17521;BME280;8878;-33.370;-70.552;2023-07-13T06:44:08;92623.81;;;11.42;68.67
17521;BME280;8878;-33.370;-70.552;2023-07-13T06:46:37;92626.16;;;11.33;69.21
17521;BME280;8878;-33.370;-70.552;2023-07-13T06:49:07;92619.25;;;11.27;68.83
17521;BME280;8878;-33.370;-70.552;2023-07-13T06:51:37;92618.53;;;11.47;68.89
17521;BME280;8878;-33.370;-70.552;2023-07-13T06:54:06;92612.94;;;11.33;68.26
17521;BME280;8878;-33.370;-70.552;2023-07-13T06:56:38;92612.69;;;11.39;68.50
17521;BME280;8878;-33.370;-70.552;2023-07-13T06:59:07;92600.34;;;11.55;68.23
17521;BME280;8878;-33.370;-70.552;2023-07-13T07:01:36;92597.69;;;11.60;67.99
17521;BME280;8878;-33.370;-70.552;2023-07-13T07:04:06;92594.00;;;11.61;67.82
17521;BME280;8878;-33.370;-70.552;2023-07-13T07:06:35;92588.69;;;11.51;67.32
17521;BME280;8878;-33.370;-70.552;2023-07-13T07:09:05;92573.06;;;11.34;67.35
17521;BME280;8878;-33.370;-70.552;2023-07-13T07:11:37;92572.53;;;11.27;67.81
17521;BME280;8878;-33.370;-70.552;2023-07-13T07:14:07;92566.69;;;11.30;67.75
17521;BME280;8878;-33.370;-70.552;2023-07-13T07:16:37;92568.03;;;11.33;67.27
17521;BME280;8878;-33.370;-70.552;2023-07-13T07:19:06;92561.94;;;11.27;66.62
17521;BME280;8878;-33.370;-70.552;2023-07-13T07:21:36;92555.38;;;11.35;66.25
17521;BME280;8878;-33.370;-70.552;2023-07-13T07:24:05;92541.38;;;11.45;66.42
17521;BME280;8878;-33.370;-70.552;2023-07-13T07:26:37;92524.72;;;11.44;65.89
17521;BME280;8878;-33.370;-70.552;2023-07-13T07:29:06;92532.41;;;11.35;65.90
17521;BME280;8878;-33.370;-70.552;2023-07-13T07:31:36;92524.69;;;11.24;65.36
17521;BME280;8878;-33.370;-70.552;2023-07-13T07:34:06;92521.00;;;11.20;65.80
17521;BME280;8878;-33.370;-70.552;2023-07-13T07:36:36;92519.91;;;11.11;66.46
17521;BME280;8878;-33.370;-70.552;2023-07-13T07:39:06;92525.22;;;11.21;66.65
17521;BME280;8878;-33.370;-70.552;2023-07-13T07:41:37;92514.13;;;11.14;66.17
17521;BME280;8878;-33.370;-70.552;2023-07-13T07:44:06;92517.38;;;10.74;66.23
17521;BME280;8878;-33.370;-70.552;2023-07-13T07:46:36;92511.25;;;10.58;66.17
17521;BME280;8878;-33.370;-70.552;2023-07-13T07:49:07;92510.13;;;10.44;66.59
17521;BME280;8878;-33.370;-70.552;2023-07-13T07:51:37;92500.16;;;10.61;66.55
17521;BME280;8878;-33.370;-70.552;2023-07-13T07:54:07;92505.22;;;10.68;66.23
17521;BME280;8878;-33.370;-70.552;2023-07-13T07:56:38;92498.63;;;10.70;65.34
17521;BME280;8878;-33.370;-70.552;2023-07-13T07:59:07;92499.69;;;10.69;64.54
17521;BME280;8878;-33.370;-70.552;2023-07-13T08:01:37;92496.25;;;10.69;66.09
17521;BME280;8878;-33.370;-70.552;2023-07-13T08:04:06;92490.94;;;10.58;65.70
17521;BME280;8878;-33.370;-70.552;2023-07-13T08:06:36;92493.75;;;10.37;65.50
17521;BME280;8878;-33.370;-70.552;2023-07-13T08:09:05;92492.47;;;9.70;67.29
17521;BME280;8878;-33.370;-70.552;2023-07-13T08:11:37;92496.88;;;9.97;66.96
17521;BME280;8878;-33.370;-70.552;2023-07-13T08:14:07;92498.63;;;10.23;67.33
17521;BME280;8878;-33.370;-70.552;2023-07-13T08:16:37;92487.44;;;10.43;66.69
17521;BME280;8878;-33.370;-70.552;2023-07-13T08:19:06;92480.09;;;10.55;65.99
17521;BME280;8878;-33.370;-70.552;2023-07-13T08:21:35;92481.13;;;10.49;65.75
17521;BME280;8878;-33.370;-70.552;2023-07-13T08:24:05;92476.41;;;10.51;65.54
17521;BME280;8878;-33.370;-70.552;2023-07-13T08:26:36;92485.38;;;10.55;65.49
17521;BME280;8878;-33.370;-70.552;2023-07-13T08:29:06;92482.34;;;10.31;65.27
17521;BME280;8878;-33.370;-70.552;2023-07-13T08:31:35;92479.13;;;10.19;64.73
17521;BME280;8878;-33.370;-70.552;2023-07-13T08:34:04;92483.13;;;10.27;65.50
17521;BME280;8878;-33.370;-70.552;2023-07-13T08:36:35;92481.34;;;10.37;64.87
17521;BME280;8878;-33.370;-70.552;2023-07-13T08:39:07;92476.84;;;10.38;64.65
17521;BME280;8878;-33.370;-70.552;2023-07-13T08:41:38;92473.13;;;10.34;65.24
17521;BME280;8878;-33.370;-70.552;2023-07-13T08:44:16;92462.81;;;10.27;65.05
17521;BME280;8878;-33.370;-70.552;2023-07-13T08:46:50;92467.56;;;10.30;64.30
17521;BME280;8878;-33.370;-70.552;2023-07-13T08:49:22;92463.16;;;10.41;64.56
17521;BME280;8878;-33.370;-70.552;2023-07-13T08:51:57;92461.53;;;10.30;64.30
17521;BME280;8878;-33.370;-70.552;2023-07-13T08:54:31;92465.63;;;10.15;65.38
17521;BME280;8878;-33.370;-70.552;2023-07-13T08:57:10;92465.84;;;10.09;65.42
17521;BME280;8878;-33.370;-70.552;2023-07-13T08:59:41;92460.28;;;10.05;65.85
17521;BME280;8878;-33.370;-70.552;2023-07-13T09:02:20;92447.66;;;10.07;65.62
17521;BME280;8878;-33.370;-70.552;2023-07-13T09:04:56;92453.66;;;9.98;65.31
17521;BME280;8878;-33.370;-70.552;2023-07-13T09:07:42;92451.16;;;9.81;65.63
17521;BME280;8878;-33.370;-70.552;2023-07-13T09:10:18;92455.56;;;9.70;66.19
17521;BME280;8878;-33.370;-70.552;2023-07-13T09:12:59;92450.69;;;9.52;66.50
17521;BME280;8878;-33.370;-70.552;2023-07-13T09:15:34;92446.28;;;9.63;66.53
17521;BME280;8878;-33.370;-70.552;2023-07-13T09:18:08;92450.31;;;9.70;66.08
17521;BME280;8878;-33.370;-70.552;2023-07-13T09:20:44;92458.03;;;9.82;65.50
17521;BME280;8878;-33.370;-70.552;2023-07-13T09:23:17;92443.59;;;9.95;64.97
17521;BME280;8878;-33.370;-70.552;2023-07-13T09:25:49;92454.44;;;9.98;65.19
17521;BME280;8878;-33.370;-70.552;2023-07-13T09:28:25;92454.66;;;9.92;64.71
17521;BME280;8878;-33.370;-70.552;2023-07-13T09:31:00;92466.34;;;9.69;65.39
17521;BME280;8878;-33.370;-70.552;2023-07-13T09:33:30;92455.94;;;9.52;65.73
17521;BME280;8878;-33.370;-70.552;2023-07-13T09:36:05;92454.16;;;9.58;64.67
17521;BME280;8878;-33.370;-70.552;2023-07-13T09:38:46;92458.88;;;9.56;64.61
17521;BME280;8878;-33.370;-70.552;2023-07-13T09:41:21;92467.94;;;9.70;64.84
17521;BME280;8878;-33.370;-70.552;2023-07-13T09:44:08;92467.38;;;9.63;65.07
17521;BME280;8878;-33.370;-70.552;2023-07-13T09:46:39;92459.97;;;9.60;65.16
17521;BME280;8878;-33.370;-70.552;2023-07-13T09:49:13;92459.44;;;9.58;65.03
17521;BME280;8878;-33.370;-70.552;2023-07-13T09:51:42;92457.38;;;9.65;64.84
17521;BME280;8878;-33.370;-70.552;2023-07-13T09:54:20;92462.50;;;9.45;64.31
17521;BME280;8878;-33.370;-70.552;2023-07-13T09:56:55;92466.56;;;9.62;64.24
17521;BME280;8878;-33.370;-70.552;2023-07-13T09:59:29;92470.59;;;9.70;63.98
17521;BME280;8878;-33.370;-70.552;2023-07-13T10:01:59;92459.25;;;9.69;64.33
17521;BME280;8878;-33.370;-70.552;2023-07-13T10:04:32;92469.44;;;9.61;64.28
17521;BME280;8878;-33.370;-70.552;2023-07-13T10:07:09;92467.69;;;9.71;64.04
17521;BME280;8878;-33.370;-70.552;2023-07-13T10:09:41;92469.03;;;9.74;63.74
17521;BME280;8878;-33.370;-70.552;2023-07-13T10:12:15;92470.59;;;9.70;64.02
17521;BME280;8878;-33.370;-70.552;2023-07-13T10:14:46;92461.53;;;9.56;64.90
17521;BME280;8878;-33.370;-70.552;2023-07-13T10:17:21;92470.97;;;9.52;64.62
17521;BME280;8878;-33.370;-70.552;2023-07-13T10:19:55;92466.16;;;9.43;65.10
17521;BME280;8878;-33.370;-70.552;2023-07-13T10:22:29;92467.25;;;9.48;64.80
17521;BME280;8878;-33.370;-70.552;2023-07-13T10:25:01;92472.69;;;9.36;64.25
17521;BME280;8878;-33.370;-70.552;2023-07-13T10:27:33;92462.50;;;9.45;64.30
17521;BME280;8878;-33.370;-70.552;2023-07-13T10:30:12;92466.78;;;9.56;63.88
17521;BME280;8878;-33.370;-70.552;2023-07-13T10:32:43;92467.28;;;9.53;63.49
17521;BME280;8878;-33.370;-70.552;2023-07-13T10:35:14;92475.44;;;9.51;63.40
17521;BME280;8878;-33.370;-70.552;2023-07-13T10:37:49;92469.91;;;9.53;63.54
17521;BME280;8878;-33.370;-70.552;2023-07-13T10:40:25;92480.50;;;9.58;63.58
17521;BME280;8878;-33.370;-70.552;2023-07-13T10:42:59;92482.88;;;9.59;63.41
17521;BME280;8878;-33.370;-70.552;2023-07-13T10:45:35;92480.50;;;9.58;62.99
17521;BME280;8878;-33.370;-70.552;2023-07-13T10:48:06;92485.13;;;9.46;62.65
17521;BME280;8878;-33.370;-70.552;2023-07-13T10:50:38;92486.66;;;9.36;63.05
17521;BME280;8878;-33.370;-70.552;2023-07-13T10:53:20;92485.53;;;9.32;63.04
17521;BME280;8878;-33.370;-70.552;2023-07-13T10:56:00;92479.63;;;9.20;62.83
17521;BME280;8878;-33.370;-70.552;2023-07-13T10:58:36;92485.78;;;9.04;62.25
17521;BME280;8878;-33.370;-70.552;2023-07-13T11:01:13;92483.72;;;9.06;62.90
17521;BME280;8878;-33.370;-70.552;2023-07-13T11:03:50;92482.75;;;9.17;62.40
17521;BME280;8878;-33.370;-70.552;2023-07-13T11:06:36;92482.38;;;9.30;61.54
17521;BME280;8878;-33.370;-70.552;2023-07-13T11:12:07;92470.28;;;9.34;60.50
17521;BME280;8878;-33.370;-70.552;2023-07-13T11:14:44;92471.75;;;9.20;59.37
17521;BME280;8878;-33.370;-70.552;2023-07-13T11:17:45;92470.66;;;9.16;59.35
17521;BME280;8878;-33.370;-70.552;2023-07-13T11:20:36;92466.59;;;9.30;59.70
17521;BME280;8878;-33.370;-70.552;2023-07-13T11:23:27;92474.63;;;9.19;58.50
17521;BME280;8878;-33.370;-70.552;2023-07-13T11:25:58;92461.66;;;9.12;58.67
17521;BME280;8878;-33.370;-70.552;2023-07-13T11:28:30;92472.69;;;9.09;59.14
17521;BME280;8878;-33.370;-70.552;2023-07-13T11:31:04;92468.31;;;9.20;58.93
17521;BME280;8878;-33.370;-70.552;2023-07-13T11:34:01;92469.81;;;9.37;58.39
17521;BME280;8878;-33.370;-70.552;2023-07-13T11:36:36;92473.75;;;9.40;58.67
17521;BME280;8878;-33.370;-70.552;2023-07-13T11:39:16;92483.34;;;8.97;58.83
17521;BME280;8878;-33.370;-70.552;2023-07-13T11:41:51;92468.72;;;9.07;58.80
17521;BME280;8878;-33.370;-70.552;2023-07-13T11:44:23;92471.50;;;8.95;58.07
17521;BME280;8878;-33.370;-70.552;2023-07-13T11:46:54;92479.03;;;8.86;58.45
17521;BME280;8878;-33.370;-70.552;2023-07-13T11:49:30;92474.25;;;9.10;57.31
17521;BME280;8878;-33.370;-70.552;2023-07-13T11:52:00;92477.53;;;9.49;56.48
17521;BME280;8878;-33.370;-70.552;2023-07-13T11:54:32;92485.84;;;9.68;57.19
17521;BME280;8878;-33.370;-70.552;2023-07-13T11:57:06;92483.00;;;9.42;56.40
17521;BME280;8878;-33.370;-70.552;2023-07-13T11:59:40;92487.97;;;9.39;57.13
17521;BME280;8878;-33.370;-70.552;2023-07-13T12:02:17;92491.94;;;9.41;55.52
17521;BME280;8878;-33.370;-70.552;2023-07-13T12:04:53;92486.97;;;9.77;55.36
17521;BME280;8878;-33.370;-70.552;2023-07-13T12:07:24;92486.47;;;9.80;55.40
17521;BME280;8878;-33.370;-70.552;2023-07-13T12:09:54;92483.31;;;9.83;56.06
17521;BME280;8878;-33.370;-70.552;2023-07-13T12:12:29;92487.53;;;9.79;56.26
17521;BME280;8878;-33.370;-70.552;2023-07-13T12:14:59;92485.03;;;9.67;55.92
17521;BME280;8878;-33.370;-70.552;2023-07-13T12:17:29;92491.09;;;9.68;55.70
17521;BME280;8878;-33.370;-70.552;2023-07-13T12:20:00;92489.34;;;9.47;55.28
17521;BME280;8878;-33.370;-70.552;2023-07-13T12:22:32;92484.47;;;9.60;54.81
17521;BME280;8878;-33.370;-70.552;2023-07-13T12:25:03;92480.63;;;9.73;53.70
17521;BME280;8878;-33.370;-70.552;2023-07-13T12:27:32;92478.16;;;9.93;55.71
17521;BME280;8878;-33.370;-70.552;2023-07-13T12:30:05;92479.00;;;10.09;56.63
17521;BME280;8878;-33.370;-70.552;2023-07-13T12:32:35;92459.88;;;10.24;53.98
17521;BME280;8878;-33.370;-70.552;2023-07-13T12:35:14;92467.84;;;10.29;53.95
17521;BME280;8878;-33.370;-70.552;2023-07-13T12:37:46;92462.03;;;10.32;52.09
17521;BME280;8878;-33.370;-70.552;2023-07-13T12:40:17;92453.47;;;10.62;53.61
17521;BME280;8878;-33.370;-70.552;2023-07-13T12:42:50;92455.88;;;10.63;54.29
17521;BME280;8878;-33.370;-70.552;2023-07-13T12:45:22;92453.22;;;10.58;54.73
17521;BME280;8878;-33.370;-70.552;2023-07-13T12:47:55;92460.44;;;10.26;54.43
17521;BME280;8878;-33.370;-70.552;2023-07-13T12:50:30;92455.19;;;10.31;55.56
17521;BME280;8878;-33.370;-70.552;2023-07-13T12:53:05;92458.22;;;10.12;55.76
17521;BME280;8878;-33.370;-70.552;2023-07-13T12:55:42;92456.06;;;10.04;55.24
17521;BME280;8878;-33.370;-70.552;2023-07-13T12:58:25;92465.84;;;10.09;54.92
17521;BME280;8878;-33.370;-70.552;2023-07-13T13:00:56;92475.72;;;9.87;56.05
17521;BME280;8878;-33.370;-70.552;2023-07-13T13:03:32;92470.41;;;9.81;56.18
17521;BME280;8878;-33.370;-70.552;2023-07-13T13:06:05;92466.22;;;10.23;55.21
17521;BME280;8878;-33.370;-70.552;2023-07-13T13:08:35;92453.72;;;10.50;55.24